createdAt,value
2018-03-16T00:00:50.523Z,5.50
2018-03-16T00:03:18.705Z,5.60
2018-03-16T00:05:46.871Z,5.50
2018-03-16T00:08:15.051Z,5.50
2018-03-16T00:10:43.349Z,5.50
2018-03-16T00:13:11.536Z,5.40
2018-03-16T00:15:39.803Z,5.40
2018-03-16T00:18:08.003Z,5.40
2018-03-16T00:20:37.020Z,5.50
2018-03-16T00:23:05.201Z,5.40
2018-03-16T00:25:33.384Z,5.50
2018-03-16T00:28:01.554Z,5.50
2018-03-16T00:30:30.125Z,5.50
2018-03-16T00:32:58.344Z,5.50
2018-03-16T00:35:26.507Z,5.50
2018-03-16T00:37:54.685Z,5.50
2018-03-16T00:40:22.859Z,5.50
2018-03-16T00:42:51.024Z,5.60
2018-03-16T00:45:19.203Z,5.70
2018-03-16T00:47:47.364Z,5.70
2018-03-16T00:50:15.561Z,5.60
2018-03-16T00:52:43.716Z,5.20
2018-03-16T00:55:11.885Z,5.00
2018-03-16T00:57:40.109Z,5.00
2018-03-16T01:00:08.417Z,4.90
2018-03-16T01:02:36.609Z,5.00
2018-03-16T01:05:04.788Z,4.90
2018-03-16T01:07:32.967Z,5.00
2018-03-16T01:10:01.208Z,5.10
2018-03-16T01:12:29.454Z,5.00
2018-03-16T01:14:58.416Z,5.10
2018-03-16T01:17:27.402Z,5.10
2018-03-16T01:19:55.615Z,5.10
2018-03-16T01:22:23.812Z,5.20
2018-03-16T01:24:51.989Z,5.30
2018-03-16T01:27:20.164Z,5.40
2018-03-16T01:29:48.337Z,5.50
2018-03-16T01:32:16.852Z,5.50
2018-03-16T01:34:45.025Z,5.50
2018-03-16T01:37:13.980Z,5.50
2018-03-16T01:39:42.152Z,5.50
2018-03-16T01:42:10.429Z,5.60
2018-03-16T01:44:38.702Z,5.60
2018-03-16T01:47:06.856Z,5.70
2018-03-16T01:49:35.033Z,5.70
2018-03-16T01:52:03.187Z,5.70
2018-03-16T01:54:31.374Z,5.80
2018-03-16T01:56:59.540Z,5.50
2018-03-16T01:59:27.700Z,5.40
2018-03-16T02:01:55.911Z,5.30
2018-03-16T02:04:24.069Z,5.40
2018-03-16T02:06:52.250Z,5.50
2018-03-16T02:09:20.403Z,5.50
2018-03-16T02:11:48.668Z,5.60
2018-03-16T02:14:16.845Z,5.60
2018-03-16T02:16:45.024Z,5.50
2018-03-16T02:19:13.203Z,5.30
2018-03-16T02:21:41.378Z,5.10
2018-03-16T02:24:09.709Z,4.80
2018-03-16T02:26:38.670Z,5.00
2018-03-16T02:29:07.606Z,4.90
2018-03-16T02:31:35.796Z,4.90
2018-03-16T02:34:03.958Z,4.80
2018-03-16T02:36:32.156Z,4.70
2018-03-16T02:39:00.328Z,4.60
2018-03-16T02:41:28.500Z,4.70
2018-03-16T02:43:56.689Z,4.80
2018-03-16T02:46:24.865Z,4.80
2018-03-16T02:48:53.353Z,4.80
2018-03-16T02:51:23.030Z,4.90
2018-03-16T02:53:51.230Z,4.90
2018-03-16T02:56:19.390Z,4.80
2018-03-16T02:58:47.578Z,4.80
2018-03-16T03:01:15.765Z,4.70
2018-03-16T03:03:44.705Z,4.80
2018-03-16T03:06:12.892Z,4.80
2018-03-16T03:08:41.073Z,4.80
2018-03-16T03:11:09.304Z,4.70
2018-03-16T03:13:37.498Z,4.70
2018-03-16T03:16:05.698Z,4.70
2018-03-16T03:18:33.881Z,4.70
2018-03-16T03:21:02.045Z,4.50
2018-03-16T03:23:30.228Z,4.50
2018-03-16T03:25:59.906Z,4.50
2018-03-16T03:28:28.080Z,4.50
2018-03-16T03:30:56.262Z,4.40
2018-03-16T03:33:24.428Z,4.30
2018-03-16T03:35:52.600Z,4.20
2018-03-16T03:38:20.764Z,4.30
2018-03-16T03:40:49.012Z,4.20
2018-03-16T03:43:17.175Z,4.20
2018-03-16T03:45:45.373Z,4.20
2018-03-16T03:48:13.527Z,4.10
2018-03-16T03:50:42.082Z,4.10
2018-03-16T03:53:11.079Z,4.00
2018-03-16T03:55:39.288Z,4.00
2018-03-16T03:58:07.504Z,4.00
2018-03-16T04:00:35.685Z,4.00
2018-03-16T04:03:03.876Z,4.00
2018-03-16T04:05:32.126Z,4.10
2018-03-16T04:08:01.129Z,4.20
2018-03-16T04:10:30.102Z,4.10
2018-03-16T04:12:58.267Z,4.10
2018-03-16T04:15:26.427Z,4.10
2018-03-16T04:17:54.599Z,4.10
2018-03-16T04:20:22.770Z,4.10
2018-03-16T04:22:50.943Z,4.20
2018-03-16T04:25:19.140Z,4.30
2018-03-16T04:27:47.340Z,4.40
2018-03-16T04:30:15.623Z,4.50
2018-03-16T04:32:43.812Z,4.50
2018-03-16T04:35:11.970Z,4.50
2018-03-16T04:37:40.153Z,4.60
2018-03-16T04:40:08.328Z,4.60
2018-03-16T04:42:36.506Z,4.60
2018-03-16T04:45:04.664Z,4.60
2018-03-16T04:47:32.905Z,4.60
2018-03-16T04:50:01.120Z,4.60
2018-03-16T04:52:29.302Z,4.50
2018-03-16T04:54:57.471Z,4.50
2018-03-16T04:57:25.631Z,4.50
2018-03-16T04:59:53.868Z,4.40
2018-03-16T05:02:22.032Z,4.40
2018-03-16T05:04:50.208Z,4.40
2018-03-16T05:07:19.161Z,4.50
2018-03-16T05:09:47.335Z,4.40
2018-03-16T05:12:15.499Z,4.50
2018-03-16T05:14:43.681Z,4.50
2018-03-16T05:17:11.892Z,4.50
2018-03-16T05:19:40.073Z,4.60
2018-03-16T05:22:08.233Z,4.50
2018-03-16T05:24:36.407Z,4.40
2018-03-16T05:27:04.565Z,4.40
2018-03-16T05:29:32.745Z,4.50
2018-03-16T05:32:00.899Z,4.40
2018-03-16T05:34:29.076Z,4.50
2018-03-16T05:36:57.241Z,4.40
2018-03-16T05:39:25.489Z,4.40
2018-03-16T05:41:53.628Z,4.40
2018-03-16T05:44:22.572Z,4.50
2018-03-16T05:46:50.809Z,4.50
2018-03-16T05:49:19.013Z,4.60
2018-03-16T05:51:47.189Z,4.60
2018-03-16T05:54:16.120Z,4.70
2018-03-16T05:56:45.060Z,4.80
2018-03-16T05:59:13.224Z,4.80
2018-03-16T06:01:41.393Z,4.90
2018-03-16T06:04:09.555Z,4.90
2018-03-16T06:06:37.773Z,4.90
2018-03-16T06:09:05.961Z,4.90
2018-03-16T06:11:34.178Z,4.90
2018-03-16T06:14:02.324Z,4.90
2018-03-16T06:16:31.272Z,5.00
2018-03-16T06:18:59.441Z,5.00
2018-03-16T06:21:27.629Z,5.10
2018-03-16T06:23:55.813Z,5.20
2018-03-16T06:26:24.002Z,5.20
2018-03-16T06:28:52.957Z,5.20
2018-03-16T06:31:21.169Z,5.20
2018-03-16T06:33:50.150Z,5.40
2018-03-16T06:36:18.332Z,5.30
2018-03-16T06:38:46.521Z,5.30
2018-03-16T06:41:14.693Z,5.30
2018-03-16T06:43:44.115Z,5.30
2018-03-16T06:46:12.305Z,5.30
2018-03-16T06:48:40.500Z,5.50
2018-03-16T06:51:08.666Z,5.50
2018-03-16T06:53:36.852Z,5.70
2018-03-16T06:56:05.785Z,5.80
2018-03-16T06:58:34.004Z,5.80
2018-03-16T07:01:02.168Z,6.00
2018-03-16T07:03:30.376Z,6.20
2018-03-16T07:05:58.553Z,5.90
2018-03-16T07:08:26.740Z,5.90
2018-03-16T07:10:54.901Z,6.00
2018-03-16T07:13:23.884Z,6.00
2018-03-16T07:15:52.819Z,5.90
2018-03-16T07:18:21.004Z,6.00
2018-03-16T07:20:49.193Z,6.00
2018-03-16T07:23:17.383Z,5.90
2018-03-16T07:25:46.316Z,6.00
2018-03-16T07:28:14.553Z,6.00
2018-03-16T07:30:43.501Z,6.00
2018-03-16T07:33:11.669Z,5.90
2018-03-16T07:35:41.019Z,6.00
2018-03-16T07:38:09.967Z,6.00
2018-03-16T07:40:38.180Z,6.00
2018-03-16T07:43:07.126Z,6.00
2018-03-16T07:45:40.871Z,6.00
2018-03-16T07:48:09.052Z,6.10
2018-03-16T07:50:37.224Z,6.10
2018-03-16T07:53:06.165Z,6.20
2018-03-16T07:55:34.377Z,6.20
2018-03-16T07:58:03.317Z,6.30
2018-03-16T08:00:31.502Z,6.30
2018-03-16T08:02:59.685Z,6.30
2018-03-16T08:05:27.869Z,6.40
2018-03-16T08:07:56.045Z,6.50
2018-03-16T08:10:24.228Z,6.70
2018-03-16T08:12:52.404Z,6.90
2018-03-16T08:15:21.682Z,7.40
2018-03-16T08:17:50.239Z,7.40
2018-03-16T08:20:19.214Z,7.70
2018-03-16T08:22:47.392Z,7.70
2018-03-16T08:25:15.572Z,7.70
2018-03-16T08:27:43.772Z,7.70
2018-03-16T08:30:11.957Z,7.50
2018-03-16T08:32:40.137Z,7.50
2018-03-16T08:35:08.644Z,7.60
2018-03-16T08:37:36.838Z,7.60
2018-03-16T08:40:05.009Z,7.60
2018-03-16T08:42:33.193Z,7.60
2018-03-16T08:45:01.376Z,7.60
2018-03-16T08:47:29.584Z,7.70
2018-03-16T08:49:57.758Z,7.80
2018-03-16T08:52:26.745Z,8.10
2018-03-16T08:54:55.668Z,8.40
2018-03-16T08:57:23.847Z,8.40
2018-03-16T08:59:51.997Z,8.40
2018-03-16T09:02:20.169Z,8.40
2018-03-16T09:04:48.348Z,8.30
2018-03-16T09:07:16.500Z,8.20
2018-03-16T09:09:44.682Z,8.40
2018-03-16T09:12:13.600Z,8.20
2018-03-16T09:14:41.799Z,8.20
2018-03-16T09:17:09.971Z,8.10
2018-03-16T09:19:38.152Z,8.20
2018-03-16T09:22:06.308Z,8.10
2018-03-16T09:24:34.479Z,8.10
2018-03-16T09:27:02.638Z,8.00
2018-03-16T09:29:30.808Z,8.00
2018-03-16T09:31:58.960Z,8.10
2018-03-16T09:34:27.896Z,8.10
2018-03-16T09:36:56.082Z,8.10
2018-03-16T09:39:24.261Z,8.10
2018-03-16T09:41:53.186Z,8.20
2018-03-16T09:44:21.386Z,8.20
2018-03-16T09:46:49.556Z,7.90
2018-03-16T09:49:17.742Z,7.70
2018-03-16T09:51:45.909Z,7.70
2018-03-16T09:54:14.102Z,7.80
2018-03-16T09:56:42.256Z,7.90
2018-03-16T09:59:10.422Z,8.00
2018-03-16T10:01:38.613Z,8.00
2018-03-16T10:04:06.795Z,7.90
2018-03-16T10:06:34.976Z,7.90
2018-03-16T10:09:03.901Z,7.90
2018-03-16T10:11:32.072Z,7.90
2018-03-16T10:14:00.240Z,7.80
2018-03-16T10:16:28.425Z,7.70
2018-03-16T10:18:56.580Z,7.70
2018-03-16T10:21:24.770Z,7.90
2018-03-16T10:23:52.916Z,8.00
2018-03-16T10:26:21.065Z,8.00
2018-03-16T10:28:50.357Z,8.40
2018-03-16T10:31:18.519Z,8.40
2018-03-16T10:33:46.691Z,8.40
2018-03-16T10:36:14.858Z,8.70
2018-03-16T10:38:43.037Z,8.40
2018-03-16T10:41:11.228Z,8.30
2018-03-16T10:43:40.160Z,8.50
2018-03-16T10:46:08.681Z,8.50
2018-03-16T10:48:36.850Z,8.60
2018-03-16T10:51:05.007Z,9.00
2018-03-16T10:53:33.176Z,8.70
2018-03-16T10:56:01.366Z,8.60
2018-03-16T10:58:29.544Z,8.60
2018-03-16T11:00:59.529Z,8.80
2018-03-16T11:03:33.365Z,8.90
2018-03-16T11:06:01.517Z,9.10
2018-03-16T11:08:31.117Z,8.80
2018-03-16T11:10:59.281Z,8.80
2018-03-16T11:13:27.446Z,9.00
2018-03-16T11:15:55.622Z,9.20
2018-03-16T11:18:23.797Z,9.10
2018-03-16T11:20:51.957Z,9.00
2018-03-16T11:23:20.960Z,8.70
2018-03-16T11:25:49.139Z,8.50
2018-03-16T11:28:17.638Z,8.40
2018-03-16T11:30:45.812Z,8.20
2018-03-16T11:33:13.973Z,8.30
2018-03-16T11:35:42.194Z,8.30
2018-03-16T11:38:10.320Z,8.20
2018-03-16T11:40:38.525Z,8.20
2018-03-16T11:43:06.692Z,8.10
2018-03-16T11:45:34.865Z,8.00
2018-03-16T11:48:03.793Z,8.00
2018-03-16T11:50:31.968Z,8.00
2018-03-16T11:53:00.136Z,8.00
2018-03-16T11:55:28.326Z,8.10
2018-03-16T11:57:56.525Z,8.30
2018-03-16T12:00:24.684Z,8.50
2018-03-16T12:02:52.866Z,8.80
2018-03-16T12:05:21.030Z,8.90
2018-03-16T12:07:49.197Z,8.90
2018-03-16T12:10:17.369Z,8.70
2018-03-16T12:12:45.540Z,8.60
2018-03-16T12:15:13.705Z,8.80
2018-03-16T12:17:41.872Z,8.60
2018-03-16T12:20:10.033Z,8.40
2018-03-16T12:22:38.193Z,8.70
2018-03-16T12:25:06.341Z,9.30
2018-03-16T12:27:35.303Z,9.70
2018-03-16T12:30:03.468Z,9.70
2018-03-16T12:32:31.645Z,9.40
2018-03-16T12:34:59.803Z,9.40
2018-03-16T12:37:27.975Z,9.30
2018-03-16T12:39:56.157Z,9.20
2018-03-16T12:42:24.295Z,9.00
2018-03-16T12:44:52.455Z,8.90
2018-03-16T12:47:20.659Z,8.70
2018-03-16T12:49:49.143Z,8.60
2018-03-16T12:52:17.318Z,8.60
2018-03-16T12:54:45.494Z,8.50
2018-03-16T12:57:14.018Z,8.60
2018-03-16T12:59:42.948Z,8.50
2018-03-16T13:02:11.138Z,8.50
2018-03-16T13:04:39.321Z,8.70
2018-03-16T13:07:07.481Z,8.60
2018-03-16T13:09:35.652Z,8.50
2018-03-16T13:12:03.829Z,8.60
2018-03-16T13:14:32.004Z,8.90
2018-03-16T13:17:00.168Z,8.90
2018-03-16T13:19:28.684Z,9.00
2018-03-16T13:21:57.973Z,8.90
2018-03-16T13:24:26.186Z,8.80
2018-03-16T13:26:54.366Z,8.80
2018-03-16T13:29:22.526Z,8.70
2018-03-16T13:31:50.731Z,8.70
2018-03-16T13:34:18.928Z,8.50
2018-03-16T13:36:47.097Z,8.40
2018-03-16T13:39:15.288Z,8.40
2018-03-16T13:41:44.220Z,8.50
2018-03-16T13:44:12.389Z,8.40
2018-03-16T13:46:40.571Z,8.40
2018-03-16T13:49:08.727Z,8.60
2018-03-16T13:51:36.906Z,8.90
2018-03-16T13:54:05.054Z,9.00
2018-03-16T13:56:33.992Z,8.80
2018-03-16T13:59:02.173Z,8.80
2018-03-16T14:01:30.368Z,8.70
2018-03-16T14:03:58.544Z,8.60
2018-03-16T14:06:27.504Z,8.40
2018-03-16T14:08:55.685Z,8.40
2018-03-16T14:11:23.905Z,8.20
2018-03-16T14:13:52.116Z,8.20
2018-03-16T14:16:20.301Z,8.20
2018-03-16T14:18:48.469Z,8.20
2018-03-16T14:21:16.668Z,8.10
2018-03-16T14:23:44.840Z,8.10
2018-03-16T14:26:13.000Z,8.20
2018-03-16T14:28:41.178Z,8.20
2018-03-16T14:31:09.341Z,8.20
2018-03-16T14:33:37.509Z,8.20
2018-03-16T14:36:05.752Z,8.30
2018-03-16T14:38:33.932Z,8.20
2018-03-16T14:41:02.102Z,8.20
2018-03-16T14:43:30.264Z,8.20
2018-03-16T14:45:58.428Z,8.30
2018-03-16T14:48:26.602Z,8.20
2018-03-16T14:50:54.748Z,8.20
2018-03-16T14:53:22.946Z,8.30
2018-03-16T14:55:51.106Z,8.40
2018-03-16T14:58:19.261Z,8.40
2018-03-16T15:00:48.196Z,8.30
2018-03-16T15:03:16.353Z,8.30
2018-03-16T15:05:44.745Z,8.30
2018-03-16T15:08:13.726Z,8.40
2018-03-16T15:10:41.899Z,8.40
2018-03-16T15:13:10.063Z,8.50
2018-03-16T15:15:38.390Z,8.50
2018-03-16T15:18:07.331Z,8.40
2018-03-16T15:20:35.501Z,8.40
2018-03-16T15:23:03.669Z,8.40
2018-03-16T15:25:31.950Z,8.40
2018-03-16T15:28:00.066Z,8.40
2018-03-16T15:30:29.667Z,8.50
2018-03-16T15:32:57.806Z,8.40
2018-03-16T15:35:26.007Z,8.50
2018-03-16T15:37:54.163Z,8.50
2018-03-16T15:40:22.294Z,8.50
2018-03-16T15:42:50.424Z,8.60
2018-03-16T15:45:18.689Z,8.50
2018-03-16T15:47:46.795Z,8.50
2018-03-16T15:50:14.951Z,8.50
2018-03-16T15:52:43.847Z,8.40
2018-03-16T15:55:12.730Z,8.40
2018-03-16T15:57:41.997Z,8.40
2018-03-16T16:00:10.107Z,8.40
2018-03-16T16:02:39.019Z,8.40
2018-03-16T16:05:07.145Z,8.40
2018-03-16T16:07:35.283Z,8.40
2018-03-16T16:10:03.411Z,8.40
2018-03-16T16:12:32.314Z,8.40
2018-03-16T16:15:00.483Z,8.30
2018-03-16T16:20:25.583Z,8.30
2018-03-16T16:22:54.495Z,8.40
2018-03-16T16:25:22.611Z,8.30
2018-03-16T16:27:50.744Z,8.30
2018-03-16T16:30:18.864Z,8.30
2018-03-16T16:32:48.510Z,8.20
2018-03-16T16:35:16.630Z,8.20
2018-03-16T16:37:44.789Z,8.20
2018-03-16T16:40:12.910Z,8.20
2018-03-16T16:42:41.827Z,8.10
2018-03-16T16:45:09.952Z,8.10
2018-03-16T16:47:38.124Z,8.30
2018-03-16T16:50:06.224Z,8.10
2018-03-16T16:52:34.342Z,8.00
2018-03-16T16:55:02.907Z,7.90
2018-03-16T16:57:30.934Z,7.90
2018-03-16T16:59:59.836Z,7.80
2018-03-16T17:02:27.967Z,7.80
2018-03-16T17:04:56.106Z,7.90
2018-03-16T17:07:24.244Z,7.90
2018-03-16T17:09:53.138Z,8.00
2018-03-16T17:12:21.258Z,8.00
2018-03-16T17:14:49.412Z,7.90
2018-03-16T17:17:17.543Z,7.90
2018-03-16T17:19:45.679Z,7.90
2018-03-16T17:22:13.799Z,7.90
2018-03-16T17:24:41.956Z,7.70
2018-03-16T17:27:10.867Z,7.80
2018-03-16T17:29:39.355Z,7.80
2018-03-16T17:32:07.475Z,7.90
2018-03-16T17:34:35.665Z,7.70
2018-03-16T17:37:04.566Z,7.40
2018-03-16T17:39:32.686Z,7.40
2018-03-16T17:42:00.831Z,7.30
2018-03-16T17:44:28.951Z,7.20
2018-03-16T17:46:57.099Z,7.20
2018-03-16T17:49:25.222Z,7.20
2018-03-16T17:51:53.354Z,7.20
2018-03-16T17:54:21.482Z,7.30
2018-03-16T17:56:49.624Z,7.20
2018-03-16T17:59:18.503Z,7.00
2018-03-16T18:01:46.634Z,6.90
2018-03-16T18:04:14.770Z,6.90
2018-03-16T18:06:42.916Z,6.90
2018-03-16T18:09:11.050Z,6.90
2018-03-16T18:11:39.186Z,6.90
2018-03-16T18:14:07.322Z,6.90
2018-03-16T18:16:35.854Z,6.90
2018-03-16T18:19:04.038Z,6.90
2018-03-16T18:21:32.158Z,6.90
2018-03-16T18:24:01.070Z,6.90
2018-03-16T18:26:29.204Z,6.90
2018-03-16T18:28:57.335Z,6.90
2018-03-16T18:31:25.461Z,6.90
2018-03-16T18:33:53.656Z,6.90
2018-03-16T18:36:21.797Z,6.90
2018-03-16T18:38:49.937Z,6.90
2018-03-16T18:41:18.070Z,6.90
2018-03-16T18:43:46.971Z,6.90
2018-03-16T18:46:15.098Z,6.90
2018-03-16T18:48:43.230Z,6.90
2018-03-16T18:51:11.432Z,6.90
2018-03-16T18:53:39.573Z,6.80
2018-03-16T18:56:07.695Z,6.80
2018-03-16T18:58:35.831Z,6.80
2018-03-16T19:01:03.972Z,6.90
2018-03-16T19:03:32.892Z,6.80
2018-03-16T19:06:01.023Z,6.80
2018-03-16T19:08:29.171Z,6.70
2018-03-16T19:10:57.275Z,6.70
2018-03-16T19:13:25.415Z,6.80
2018-03-16T19:15:53.555Z,6.70
2018-03-16T19:18:21.695Z,6.60
2018-03-16T19:20:49.948Z,6.60
2018-03-16T19:23:18.814Z,6.60
2018-03-16T19:25:46.960Z,6.70
2018-03-16T19:28:15.078Z,6.60
2018-03-16T19:30:43.240Z,6.60
2018-03-16T19:33:11.416Z,6.60
2018-03-16T19:35:40.320Z,6.60
2018-03-16T19:38:08.462Z,6.60
2018-03-16T19:40:36.625Z,6.60
2018-03-16T19:43:04.754Z,6.60
2018-03-16T19:45:35.147Z,6.50
2018-03-16T19:48:04.331Z,6.50
2018-03-16T19:50:33.230Z,6.50
2018-03-16T19:53:03.054Z,6.50
2018-03-16T19:55:32.184Z,6.50
2018-03-16T19:58:03.442Z,6.50
2018-03-16T20:00:32.964Z,6.50
2018-03-16T20:03:02.147Z,6.50
2018-03-16T20:05:31.176Z,6.50
2018-03-16T20:08:00.067Z,6.50
2018-03-16T20:10:29.743Z,6.50
2018-03-16T20:12:57.888Z,6.50
2018-03-16T20:15:26.081Z,6.50
2018-03-16T20:17:54.230Z,6.50
2018-03-16T20:20:22.357Z,6.40
2018-03-16T20:22:52.993Z,6.50
2018-03-16T20:25:23.152Z,6.50
2018-03-16T20:27:52.702Z,6.50
2018-03-16T20:30:22.378Z,6.50
2018-03-16T20:32:51.179Z,6.50
2018-03-16T20:35:20.034Z,6.50
2018-03-16T20:37:49.670Z,6.40
2018-03-16T20:40:18.859Z,6.40
2018-03-16T20:42:47.075Z,6.40
2018-03-16T20:45:17.461Z,6.40
2018-03-16T20:47:47.097Z,6.40
2018-03-16T20:50:16.054Z,6.40
2018-03-16T20:52:44.218Z,6.40
2018-03-16T20:55:12.498Z,6.40
2018-03-16T20:57:40.815Z,6.40
2018-03-16T21:00:08.959Z,6.40
2018-03-16T21:02:37.854Z,6.40
2018-03-16T21:05:06.795Z,6.40
2018-03-16T21:07:34.950Z,6.40
2018-03-16T21:10:03.151Z,6.40
2018-03-16T21:12:31.326Z,6.40
2018-03-16T21:14:59.478Z,6.50
2018-03-16T21:17:27.618Z,6.60
2018-03-16T21:19:56.635Z,6.80
2018-03-16T21:22:24.770Z,6.80
2018-03-16T21:24:53.710Z,6.90
2018-03-16T21:27:21.841Z,6.90
2018-03-16T21:29:49.996Z,7.00
2018-03-16T21:32:18.939Z,7.00
2018-03-16T21:34:47.082Z,7.00
2018-03-16T21:37:15.271Z,6.90
2018-03-16T21:39:43.392Z,6.80
2018-03-16T21:42:11.528Z,6.30
2018-03-16T21:44:40.418Z,6.10
2018-03-16T21:47:08.631Z,6.10
2018-03-16T21:49:37.526Z,5.90
2018-03-16T21:52:05.741Z,5.90
2018-03-16T21:54:33.870Z,5.80
2018-03-16T21:57:02.018Z,5.70
2018-03-16T21:59:30.182Z,5.60
2018-03-16T22:01:58.354Z,5.50
2018-03-16T22:04:26.492Z,5.20
2018-03-16T22:06:54.690Z,5.20
2018-03-16T22:09:22.840Z,5.20
2018-03-16T22:11:51.062Z,5.10
2018-03-16T22:14:19.198Z,5.10
2018-03-16T22:16:47.465Z,5.20
2018-03-16T22:19:15.607Z,5.00
2018-03-16T22:21:43.756Z,4.90
2018-03-16T22:24:12.778Z,4.80
2018-03-16T22:26:40.914Z,4.80
2018-03-16T22:29:09.828Z,4.70
2018-03-16T22:31:38.011Z,4.70
2018-03-16T22:34:06.159Z,4.70
2018-03-16T22:36:34.295Z,4.50
2018-03-16T22:39:02.447Z,4.50
2018-03-16T22:41:30.631Z,4.40
2018-03-16T22:43:58.787Z,4.20
2018-03-16T22:46:26.934Z,4.20
2018-03-16T22:48:55.082Z,4.20
2018-03-16T22:51:23.220Z,4.10
2018-03-16T22:53:52.165Z,4.00
2018-03-16T22:56:20.844Z,3.90
2018-03-16T22:58:49.125Z,3.90
2018-03-16T23:01:17.297Z,3.90
2018-03-16T23:03:45.467Z,4.00
2018-03-16T23:06:13.586Z,3.90
2018-03-16T23:08:42.511Z,3.80
2018-03-16T23:11:10.638Z,3.70
2018-03-16T23:13:38.791Z,3.80
2018-03-16T23:16:06.950Z,3.80
2018-03-16T23:18:35.099Z,3.60
2018-03-16T23:21:03.232Z,3.60
2018-03-16T23:23:31.396Z,3.60
2018-03-16T23:25:59.526Z,3.60
2018-03-16T23:28:27.723Z,3.50
2018-03-16T23:30:55.931Z,3.30
2018-03-16T23:33:24.834Z,3.20
2018-03-16T23:35:52.995Z,3.20
2018-03-16T23:38:21.154Z,3.10
2018-03-16T23:40:50.059Z,3.10
2018-03-16T23:43:18.195Z,3.00
2018-03-16T23:45:46.342Z,3.00
2018-03-16T23:48:15.256Z,3.10
2018-03-16T23:50:43.431Z,3.10
2018-03-16T23:53:11.559Z,2.80
2018-03-16T23:55:39.703Z,3.00
2018-03-16T23:58:07.932Z,2.80
